createdAt,value
2023-05-24T00:01:57.811Z,99960.91
2023-05-24T00:04:24.471Z,99963.60
2023-05-24T00:06:51.832Z,99963.61
2023-05-24T00:09:18.342Z,99957.80
2023-05-24T00:11:44.853Z,99955.11
2023-05-24T00:14:11.473Z,99949.23
2023-05-24T00:16:38.122Z,99940.30
2023-05-24T00:19:04.688Z,99940.57
2023-05-24T00:21:31.261Z,99938.07
2023-05-24T00:23:57.986Z,99939.84
2023-05-24T00:26:24.488Z,99941.26
2023-05-24T00:28:50.940Z,99939.95
2023-05-24T00:31:17.491Z,99941.48
2023-05-24T00:33:44.071Z,99937.02
2023-05-24T00:36:11.139Z,99939.49
2023-05-24T00:38:37.627Z,99939.53
2023-05-24T00:41:04.174Z,99936.19
2023-05-24T00:43:30.665Z,99936.43
2023-05-24T00:46:21.458Z,99937.73
2023-05-24T00:48:49.695Z,99933.95
2023-05-24T00:51:16.574Z,99933.67
2023-05-24T00:53:46.327Z,99935.86
2023-05-24T00:56:17.205Z,99939.30
2023-05-24T00:58:44.348Z,99934.54
2023-05-24T01:01:11.527Z,99931.35
2023-05-24T01:03:38.477Z,99934.33
2023-05-24T01:06:07.353Z,99936.55
2023-05-24T01:08:40.050Z,99931.86
2023-05-24T01:11:13.028Z,99932.67
2023-05-24T01:14:00.992Z,99933.67
2023-05-24T01:16:41.669Z,99933.63
2023-05-24T01:19:43.877Z,99933.23
2023-05-24T01:22:13.082Z,99935.33
2023-05-24T01:25:02.481Z,99930.91
2023-05-24T01:27:32.141Z,99928.80
2023-05-24T01:29:59.930Z,99927.56
2023-05-24T01:32:27.167Z,99927.36
2023-05-24T01:34:53.753Z,99924.00
2023-05-24T01:37:20.270Z,99923.83
2023-05-24T01:39:47.509Z,99921.36
2023-05-24T01:42:27.186Z,99921.88
2023-05-24T01:44:57.818Z,99919.16
2023-05-24T01:47:51.634Z,99919.31
2023-05-24T01:50:38.507Z,99913.63
2023-05-24T01:53:09.122Z,99917.88
2023-05-24T01:55:37.501Z,99917.94
2023-05-24T01:58:06.312Z,99918.39
2023-05-24T02:00:34.489Z,99919.67
2023-05-24T02:03:01.550Z,99917.83
2023-05-24T02:05:28.265Z,99916.66
2023-05-24T02:07:54.859Z,99912.77
2023-05-24T02:10:21.374Z,99918.55
2023-05-24T02:12:48.025Z,99921.55
2023-05-24T02:15:14.605Z,99920.67
2023-05-24T02:17:42.266Z,99925.52
2023-05-24T02:20:09.492Z,99926.77
2023-05-24T02:22:36.010Z,99924.66
2023-05-24T02:25:02.546Z,99925.10
2023-05-24T02:27:29.100Z,99924.47
2023-05-24T02:29:55.558Z,99924.86
2023-05-24T02:32:22.043Z,99920.45
2023-05-24T02:34:48.622Z,99923.11
2023-05-24T02:37:15.229Z,99922.58
2023-05-24T02:39:42.146Z,99919.42
2023-05-24T02:42:08.924Z,99921.73
2023-05-24T02:44:35.499Z,99919.86
2023-05-24T02:47:02.040Z,99923.09
2023-05-24T02:49:28.586Z,99920.33
2023-05-24T02:51:55.072Z,99923.77
2023-05-24T02:54:21.556Z,99923.64
2023-05-24T02:56:48.066Z,99921.39
2023-05-24T02:59:14.598Z,99918.97
2023-05-24T03:01:41.175Z,99920.84
2023-05-24T03:04:07.837Z,99922.55
2023-05-24T03:06:34.475Z,99920.86
2023-05-24T03:09:00.998Z,99919.93
2023-05-24T03:11:27.508Z,99919.23
2023-05-24T03:13:53.999Z,99924.41
2023-05-24T03:16:20.571Z,99928.58
2023-05-24T03:18:47.110Z,99928.84
2023-05-24T03:21:13.705Z,99930.65
2023-05-24T03:23:40.276Z,99930.33
2023-05-24T03:26:06.784Z,99926.51
2023-05-24T03:28:33.401Z,99926.52
2023-05-24T03:30:59.984Z,99921.55
2023-05-24T03:33:26.515Z,99924.64
2023-05-24T03:35:53.157Z,99929.54
2023-05-24T03:38:19.643Z,99931.98
2023-05-24T03:40:46.145Z,99928.44
2023-05-24T03:43:12.647Z,99924.14
2023-05-24T03:45:40.180Z,99932.95
2023-05-24T03:48:07.031Z,99936.84
2023-05-24T03:50:33.598Z,99935.64
2023-05-24T03:53:00.187Z,99935.59
2023-05-24T03:55:26.782Z,99935.20
2023-05-24T03:57:53.324Z,99936.27
2023-05-24T04:00:19.921Z,99938.40
2023-05-24T04:02:46.529Z,99942.48
2023-05-24T04:05:13.905Z,99942.08
2023-05-24T04:07:40.919Z,99941.88
2023-05-24T04:10:08.212Z,99947.58
2023-05-24T04:12:35.256Z,99952.80
2023-05-24T04:15:02.151Z,99956.66
2023-05-24T04:17:28.860Z,99956.43
2023-05-24T04:19:55.785Z,99961.33
2023-05-24T04:22:23.776Z,99964.98
2023-05-24T04:24:52.454Z,99962.96
2023-05-24T04:27:18.953Z,99968.30
2023-05-24T04:29:45.608Z,99975.09
2023-05-24T04:32:12.187Z,99971.95
2023-05-24T04:34:38.659Z,99977.14
2023-05-24T04:37:05.238Z,99980.52
2023-05-24T04:39:31.759Z,99975.86
2023-05-24T04:41:58.294Z,99980.60
2023-05-24T04:44:24.756Z,99982.02
2023-05-24T04:46:51.306Z,99982.95
2023-05-24T04:49:17.909Z,99984.77
2023-05-24T04:51:44.456Z,99974.42
2023-05-24T04:54:10.979Z,99973.09
2023-05-24T04:56:38.509Z,99971.16
2023-05-24T04:59:06.195Z,99977.04
2023-05-24T05:01:32.856Z,99975.73
2023-05-24T05:04:00.013Z,99984.13
2023-05-24T05:06:26.670Z,99977.63
2023-05-24T05:08:53.195Z,99982.89
2023-05-24T05:11:19.768Z,99988.21
2023-05-24T05:13:46.265Z,99990.38
2023-05-24T05:16:13.007Z,99989.22
2023-05-24T05:18:39.507Z,99988.48
2023-05-24T05:21:06.034Z,99987.02
2023-05-24T05:23:32.615Z,99990.54
2023-05-24T05:25:59.078Z,99988.77
2023-05-24T05:28:25.571Z,99990.46
2023-05-24T05:30:52.189Z,99988.35
2023-05-24T05:33:18.765Z,99986.69
2023-05-24T05:35:45.350Z,99990.58
2023-05-24T05:38:11.814Z,99992.05
2023-05-24T05:40:38.364Z,99994.86
2023-05-24T05:43:04.985Z,99994.78
2023-05-24T05:45:31.612Z,99994.91
2023-05-24T05:47:58.109Z,99996.10
2023-05-24T05:50:24.746Z,100003.80
2023-05-24T05:52:51.248Z,100003.79
2023-05-24T05:55:17.759Z,100004.70
2023-05-24T05:57:44.288Z,100008.45
2023-05-24T06:00:11.261Z,100007.95
2023-05-24T06:02:37.801Z,100008.04
2023-05-24T06:05:04.611Z,100009.89
2023-05-24T06:07:31.212Z,100011.02
2023-05-24T06:09:57.775Z,100014.20
2023-05-24T06:12:24.282Z,100018.34
2023-05-24T06:14:50.787Z,100022.11
2023-05-24T06:17:17.277Z,100024.02
2023-05-24T06:19:43.782Z,100026.70
2023-05-24T06:22:10.346Z,100022.94
2023-05-24T06:24:36.813Z,100022.52
2023-05-24T06:27:05.307Z,100019.79
2023-05-24T06:29:32.228Z,100022.35
2023-05-24T06:31:58.915Z,100024.52
2023-05-24T06:34:25.587Z,100030.11
2023-05-24T06:36:52.204Z,100025.26
2023-05-24T06:39:19.011Z,100024.85
2023-05-24T06:41:45.644Z,100028.50
2023-05-24T06:44:12.167Z,100029.53
2023-05-24T06:46:39.430Z,100030.52
2023-05-24T06:49:06.049Z,100033.13
2023-05-24T06:51:32.574Z,100032.11
2023-05-24T06:53:59.136Z,100032.61
2023-05-24T06:56:25.821Z,100034.91
2023-05-24T06:58:52.588Z,100035.40
2023-05-24T07:01:19.248Z,100035.20
2023-05-24T07:03:45.797Z,100038.52
2023-05-24T07:06:12.328Z,100036.62
2023-05-24T07:08:38.870Z,100038.30
2023-05-24T07:11:05.565Z,100041.31
2023-05-24T07:13:32.107Z,100038.98
2023-05-24T07:15:58.608Z,100037.80
2023-05-24T07:18:25.256Z,100042.10
2023-05-24T07:20:51.938Z,100048.05
2023-05-24T07:23:18.526Z,100048.66
2023-05-24T07:25:45.044Z,100049.34
2023-05-24T07:28:11.594Z,100050.90
2023-05-24T07:30:38.113Z,100053.23
2023-05-24T07:33:04.683Z,100054.21
2023-05-24T07:35:31.304Z,100054.09
2023-05-24T07:37:57.879Z,100057.35
2023-05-24T07:40:25.720Z,100061.37
2023-05-24T07:42:52.413Z,100066.40
2023-05-24T07:45:18.925Z,100068.07
2023-05-24T07:47:45.486Z,100069.45
2023-05-24T07:50:12.137Z,100067.55
2023-05-24T07:52:38.668Z,100065.95
2023-05-24T07:55:06.151Z,100069.11
2023-05-24T07:57:32.674Z,100070.66
2023-05-24T07:59:59.179Z,100072.97
2023-05-24T08:02:25.773Z,100071.25
2023-05-24T08:04:52.290Z,100074.63
2023-05-24T08:07:19.032Z,100076.78
2023-05-24T08:09:45.605Z,100075.22
2023-05-24T08:12:13.018Z,100079.48
2023-05-24T08:14:40.849Z,100083.89
2023-05-24T08:17:07.408Z,100081.69
2023-05-24T08:19:33.895Z,100084.77
2023-05-24T08:22:00.556Z,100082.82
2023-05-24T08:24:27.030Z,100079.20
2023-05-24T08:26:53.584Z,100079.16
2023-05-24T08:29:20.149Z,100086.82
2023-05-24T08:31:46.694Z,100086.68
2023-05-24T08:34:13.951Z,100087.37
2023-05-24T08:36:40.677Z,100091.73
2023-05-24T08:39:07.210Z,100088.71
2023-05-24T08:41:34.028Z,100092.67
2023-05-24T08:44:01.025Z,100099.23
2023-05-24T08:46:28.857Z,100099.64
2023-05-24T08:48:57.716Z,100101.38
2023-05-24T08:51:24.540Z,100101.95
2023-05-24T08:53:52.069Z,100105.75
2023-05-24T08:56:19.276Z,100110.98
2023-05-24T08:58:46.037Z,100112.68
2023-05-24T09:01:14.421Z,100115.64
2023-05-24T09:03:42.971Z,100119.69
2023-05-24T09:06:10.902Z,100115.14
2023-05-24T09:08:38.172Z,100116.35
2023-05-24T09:11:07.272Z,100120.16
2023-05-24T09:13:34.034Z,100122.73
2023-05-24T09:16:01.691Z,100125.02
2023-05-24T09:18:28.571Z,100126.83
2023-05-24T09:20:55.605Z,100127.08
2023-05-24T09:23:22.881Z,100125.23
2023-05-24T09:25:50.067Z,100123.89
2023-05-24T09:28:19.935Z,100118.98
2023-05-24T09:30:58.226Z,100118.69
2023-05-24T09:33:32.117Z,100118.99
2023-05-24T09:35:59.952Z,100117.13
2023-05-24T09:38:27.330Z,100113.92
2023-05-24T09:41:07.896Z,100121.16
2023-05-24T09:43:35.528Z,100119.58
2023-05-24T09:46:03.811Z,100116.88
2023-05-24T09:48:30.955Z,100122.05
2023-05-24T09:51:00.528Z,100125.32
2023-05-24T09:53:27.167Z,100119.98
2023-05-24T09:55:54.423Z,100114.33
2023-05-24T09:58:21.004Z,100121.12
2023-05-24T10:00:48.045Z,100119.56
2023-05-24T10:03:14.838Z,100122.95
2023-05-24T10:05:45.548Z,100118.13
2023-05-24T10:08:12.622Z,100116.47
2023-05-24T10:10:39.170Z,100112.73
2023-05-24T10:13:05.814Z,100114.98
2023-05-24T10:15:32.411Z,100116.25
2023-05-24T10:17:59.164Z,100115.77
2023-05-24T10:20:25.898Z,100120.58
2023-05-24T10:22:55.369Z,100115.17
2023-05-24T10:25:23.999Z,100122.13
2023-05-24T10:27:54.248Z,100122.55
2023-05-24T10:30:26.570Z,100119.11
2023-05-24T10:32:55.669Z,100117.64
2023-05-24T10:35:23.151Z,100116.41
2023-05-24T10:37:50.256Z,100110.65
2023-05-24T10:40:21.285Z,100111.98
2023-05-24T10:42:48.478Z,100107.39
2023-05-24T10:45:30.268Z,100107.32
2023-05-24T10:47:56.868Z,100099.90
2023-05-24T10:50:23.669Z,100099.17
2023-05-24T10:52:50.256Z,100102.67
2023-05-24T10:55:19.475Z,100103.70
2023-05-24T10:57:45.975Z,100099.25
2023-05-24T11:00:33.919Z,100098.99
2023-05-24T11:03:06.413Z,100101.23
2023-05-24T11:05:35.408Z,100102.21
2023-05-24T11:08:02.413Z,100098.98
2023-05-24T11:10:32.554Z,100097.14
2023-05-24T11:13:02.954Z,100098.35
2023-05-24T11:15:29.980Z,100096.75
2023-05-24T11:18:08.955Z,100098.99
2023-05-24T11:20:35.970Z,100098.66
2023-05-24T11:23:04.082Z,100095.89
2023-05-24T11:25:30.641Z,100085.88
2023-05-24T11:27:58.809Z,100081.20
2023-05-24T11:30:25.381Z,100078.63
2023-05-24T11:32:51.976Z,100078.69
2023-05-24T11:35:21.282Z,100076.33
2023-05-24T11:37:47.840Z,100075.55
2023-05-24T11:40:14.613Z,100077.59
2023-05-24T11:42:41.731Z,100074.66
2023-05-24T11:45:09.071Z,100067.56
2023-05-24T11:47:38.369Z,100061.64
2023-05-24T11:50:05.589Z,100065.40
2023-05-24T11:52:32.304Z,100065.20
2023-05-24T11:54:58.844Z,100064.42
2023-05-24T11:57:38.167Z,100063.27
2023-05-24T12:00:05.398Z,100063.31
2023-05-24T12:02:32.064Z,100062.23
2023-05-24T12:05:07.285Z,100068.33
2023-05-24T12:07:34.331Z,100068.50
2023-05-24T12:10:00.847Z,100066.21
2023-05-24T12:12:33.933Z,100067.76
2023-05-24T12:15:08.088Z,100066.52
2023-05-24T12:17:34.661Z,100064.11
2023-05-24T12:20:03.177Z,100058.41
2023-05-24T12:22:29.757Z,100063.04
2023-05-24T12:24:57.045Z,100069.27
2023-05-24T12:27:27.931Z,100068.71
2023-05-24T12:29:54.422Z,100063.95
2023-05-24T12:32:21.342Z,100060.57
2023-05-24T12:34:49.801Z,100058.77
2023-05-24T12:37:17.398Z,100056.40
2023-05-24T12:39:44.740Z,100053.70
2023-05-24T12:42:12.206Z,100053.88
2023-05-24T12:44:39.297Z,100048.02
2023-05-24T12:47:07.728Z,100042.23
2023-05-24T12:49:34.607Z,100047.80
2023-05-24T12:52:01.259Z,100043.73
2023-05-24T12:54:28.833Z,100040.61
2023-05-24T12:56:57.236Z,100040.48
2023-05-24T12:59:24.311Z,100038.91
2023-05-24T13:01:50.925Z,100042.36
2023-05-24T13:04:18.555Z,100041.58
2023-05-24T13:06:45.207Z,100034.77
2023-05-24T13:09:11.751Z,100033.39
2023-05-24T13:11:38.340Z,100033.15
2023-05-24T13:14:04.858Z,100029.86
2023-05-24T13:16:31.448Z,100029.92
2023-05-24T13:18:58.016Z,100030.75
2023-05-24T13:21:24.598Z,100032.36
2023-05-24T13:23:51.115Z,100033.58
2023-05-24T13:26:17.762Z,100028.38
2023-05-24T13:28:59.033Z,100028.50
2023-05-24T13:31:31.307Z,100027.44
2023-05-24T13:33:57.952Z,100032.14
2023-05-24T13:36:24.494Z,100030.69
2023-05-24T13:39:02.297Z,100027.30
2023-05-24T13:41:37.584Z,100023.50
2023-05-24T13:44:04.383Z,100018.55
2023-05-24T13:46:31.147Z,100014.74
2023-05-24T13:48:57.680Z,100015.02
2023-05-24T13:51:24.512Z,100014.67
2023-05-24T13:53:51.027Z,100014.36
2023-05-24T13:56:17.574Z,100015.26
2023-05-24T13:58:44.476Z,100012.59
2023-05-24T14:01:11.142Z,100011.25
2023-05-24T14:03:37.914Z,100012.21
2023-05-24T14:06:04.547Z,100014.84
2023-05-24T14:08:31.081Z,100011.86
2023-05-24T14:10:57.588Z,100014.41
2023-05-24T14:14:07.476Z,100013.17
2023-05-24T14:16:11.053Z,100009.64
2023-05-24T14:18:37.635Z,100015.17
2023-05-24T14:21:04.156Z,100017.73
2023-05-24T14:23:31.130Z,100014.32
2023-05-24T14:25:58.197Z,100013.27
2023-05-24T14:28:24.972Z,100018.09
2023-05-24T14:30:51.506Z,100019.94
2023-05-24T14:33:18.029Z,100019.76
2023-05-24T14:35:44.750Z,100015.08
2023-05-24T14:38:11.820Z,100015.03
2023-05-24T14:40:39.022Z,100017.12
2023-05-24T14:43:07.227Z,100021.75
2023-05-24T14:45:33.962Z,100025.70
2023-05-24T14:48:00.540Z,100025.89
2023-05-24T14:50:27.124Z,100026.10
2023-05-24T14:52:55.325Z,100024.04
2023-05-24T14:55:22.478Z,100025.60
2023-05-24T14:57:49.182Z,100031.57
2023-05-24T15:00:16.217Z,100032.88
2023-05-24T15:02:42.903Z,100034.80
2023-05-24T15:05:09.665Z,100032.08
2023-05-24T15:07:36.188Z,100038.38
2023-05-24T15:10:03.164Z,100039.58
2023-05-24T15:12:29.667Z,100040.29
2023-05-24T15:14:56.194Z,100036.79
2023-05-24T15:17:22.785Z,100038.85
2023-05-24T15:19:49.776Z,100034.61
2023-05-24T15:22:16.349Z,100037.77
2023-05-24T15:24:42.926Z,100040.39
2023-05-24T15:27:09.463Z,100037.35
2023-05-24T15:29:36.235Z,100038.41
2023-05-24T15:32:02.747Z,100035.81
2023-05-24T15:34:29.223Z,100038.61
2023-05-24T15:36:55.747Z,100040.61
2023-05-24T15:39:22.267Z,100038.06
2023-05-24T15:41:48.997Z,100042.70
2023-05-24T15:44:15.498Z,100049.15
2023-05-24T15:46:42.037Z,100049.11
2023-05-24T15:49:08.547Z,100047.13
2023-05-24T15:52:02.930Z,100048.05
2023-05-24T15:54:22.322Z,100045.57
2023-05-24T15:56:48.870Z,100048.15
2023-05-24T15:59:15.738Z,100050.92
2023-05-24T16:01:42.291Z,100056.34
2023-05-24T16:04:09.087Z,100060.41
2023-05-24T16:06:35.685Z,100061.27
2023-05-24T16:09:02.596Z,100066.95
2023-05-24T16:11:29.078Z,100064.92
2023-05-24T16:13:55.550Z,100068.78
2023-05-24T16:16:22.085Z,100067.98
2023-05-24T16:18:48.903Z,100068.36
2023-05-24T16:21:15.482Z,100071.13
2023-05-24T16:23:42.007Z,100072.32
2023-05-24T16:26:08.643Z,100073.70
2023-05-24T16:28:35.186Z,100073.82
2023-05-24T16:31:01.701Z,100076.13
2023-05-24T16:33:28.380Z,100079.88
2023-05-24T16:35:54.879Z,100084.61
2023-05-24T16:38:25.358Z,100087.52
2023-05-24T16:40:52.403Z,100097.48
2023-05-24T16:43:19.057Z,100100.66
2023-05-24T16:45:45.844Z,100108.67
2023-05-24T16:48:13.228Z,100111.94
2023-05-24T16:50:40.406Z,100111.30
2023-05-24T16:53:07.056Z,100113.66
2023-05-24T16:55:33.613Z,100117.59
2023-05-24T16:58:00.235Z,100118.56
2023-05-24T17:00:26.879Z,100119.20
2023-05-24T17:02:53.452Z,100121.38
2023-05-24T17:05:20.061Z,100123.52
2023-05-24T17:07:46.563Z,100129.48
2023-05-24T17:10:13.096Z,100126.56
2023-05-24T17:12:39.654Z,100127.00
2023-05-24T17:15:06.535Z,100134.30
2023-05-24T17:17:33.072Z,100137.31
2023-05-24T17:19:59.720Z,100136.15
2023-05-24T17:22:26.581Z,100134.52
2023-05-24T17:24:53.058Z,100135.15
2023-05-24T17:27:22.095Z,100135.77
2023-05-24T17:29:49.140Z,100143.12
2023-05-24T17:32:15.584Z,100142.59
2023-05-24T17:34:42.120Z,100144.52
2023-05-24T17:37:08.639Z,100148.81
2023-05-24T17:39:35.113Z,100149.16
2023-05-24T17:42:01.672Z,100147.88
2023-05-24T17:44:28.161Z,100153.45
2023-05-24T17:46:54.702Z,100157.80
2023-05-24T17:49:21.308Z,100161.62
2023-05-24T17:51:47.846Z,100160.90
2023-05-24T17:54:14.338Z,100162.44
2023-05-24T17:56:40.896Z,100162.14
2023-05-24T17:59:07.457Z,100168.10
2023-05-24T18:01:34.016Z,100173.52
2023-05-24T18:04:00.531Z,100175.92
2023-05-24T18:06:27.092Z,100177.84
2023-05-24T18:08:53.920Z,100179.03
2023-05-24T18:11:20.420Z,100181.77
2023-05-24T18:13:46.914Z,100188.75
2023-05-24T18:16:13.920Z,100196.56
2023-05-24T18:18:40.496Z,100198.21
2023-05-24T18:21:08.039Z,100205.58
2023-05-24T18:23:34.564Z,100203.65
2023-05-24T18:26:03.092Z,100203.71
2023-05-24T18:28:29.954Z,100207.47
2023-05-24T18:30:56.493Z,100206.57
2023-05-24T18:33:23.156Z,100207.64
2023-05-24T18:35:49.764Z,100209.12
2023-05-24T18:38:16.361Z,100210.98
2023-05-24T18:40:43.076Z,100214.55
2023-05-24T18:43:09.644Z,100215.24
2023-05-24T18:45:36.168Z,100220.92
2023-05-24T18:48:02.822Z,100225.95
2023-05-24T18:50:29.361Z,100221.58
2023-05-24T18:52:55.966Z,100223.15
2023-05-24T18:55:22.512Z,100223.33
2023-05-24T18:57:49.116Z,100228.10
2023-05-24T19:00:16.039Z,100233.45
2023-05-24T19:02:42.617Z,100234.02
2023-05-24T19:05:09.434Z,100238.49
2023-05-24T19:07:36.808Z,100242.64
2023-05-24T19:10:03.961Z,100244.66
2023-05-24T19:12:30.620Z,100248.41
2023-05-24T19:14:57.288Z,100248.96
2023-05-24T19:17:25.027Z,100248.52
2023-05-24T19:19:52.169Z,100253.61
2023-05-24T19:22:18.802Z,100257.16
2023-05-24T19:24:45.470Z,100259.02
2023-05-24T19:27:11.978Z,100264.36
2023-05-24T19:29:38.560Z,100268.56
2023-05-24T19:32:05.747Z,100268.96
2023-05-24T19:34:32.509Z,100267.38
2023-05-24T19:36:59.046Z,100263.31
2023-05-24T19:39:25.571Z,100266.65
2023-05-24T19:41:52.144Z,100271.19
2023-05-24T19:44:19.225Z,100272.00
2023-05-24T19:46:45.989Z,100274.41
2023-05-24T19:49:12.590Z,100278.60
2023-05-24T19:51:39.119Z,100279.98
2023-05-24T19:54:05.716Z,100283.21
2023-05-24T19:56:32.265Z,100280.39
2023-05-24T19:58:58.828Z,100278.52
2023-05-24T20:01:25.643Z,100276.05
2023-05-24T20:03:52.371Z,100280.26
2023-05-24T20:06:19.055Z,100278.29
2023-05-24T20:08:45.730Z,100278.49
2023-05-24T20:11:12.326Z,100276.90
2023-05-24T20:13:41.420Z,100269.29
2023-05-24T20:16:07.970Z,100271.31
2023-05-24T20:18:34.546Z,100272.99
2023-05-24T20:21:02.433Z,100273.61
2023-05-24T20:23:29.048Z,100267.05
2023-05-24T20:25:55.609Z,100266.91
2023-05-24T20:28:30.623Z,100268.52
2023-05-24T20:30:58.617Z,100268.02
2023-05-24T20:33:25.157Z,100265.23
2023-05-24T20:35:51.680Z,100260.94
2023-05-24T20:38:18.248Z,100260.04
2023-05-24T20:40:44.802Z,100258.98
2023-05-24T20:43:11.305Z,100261.82
2023-05-24T20:45:37.929Z,100264.95
2023-05-24T20:48:04.697Z,100272.32
2023-05-24T20:50:31.289Z,100272.23
2023-05-24T20:52:57.893Z,100270.67
2023-05-24T20:55:26.555Z,100274.08
2023-05-24T20:57:53.560Z,100276.84
2023-05-24T21:00:20.128Z,100278.31
2023-05-24T21:02:46.795Z,100283.23
2023-05-24T21:05:13.439Z,100284.25
2023-05-24T21:07:40.034Z,100284.34
2023-05-24T21:10:07.266Z,100285.34
2023-05-24T21:12:33.801Z,100284.73
2023-05-24T21:15:00.349Z,100287.10
2023-05-24T21:17:26.885Z,100284.30
2023-05-24T21:19:53.483Z,100287.69
2023-05-24T21:22:20.030Z,100286.38
2023-05-24T21:24:46.783Z,100284.72
2023-05-24T21:27:13.446Z,100290.04
2023-05-24T21:29:39.972Z,100288.27
2023-05-24T21:32:06.533Z,100285.38
2023-05-24T21:34:33.049Z,100285.52
2023-05-24T21:36:59.564Z,100288.14
2023-05-24T21:39:26.059Z,100290.24
2023-05-24T21:41:52.655Z,100293.81
2023-05-24T21:44:19.209Z,100295.64
2023-05-24T21:46:45.734Z,100295.65
2023-05-24T21:49:12.325Z,100302.25
2023-05-24T21:51:38.950Z,100306.56
2023-05-24T21:54:05.639Z,100311.27
2023-05-24T21:56:32.140Z,100316.16
2023-05-24T21:58:58.733Z,100311.48
2023-05-24T22:01:25.287Z,100314.02
2023-05-24T22:03:51.913Z,100313.12
2023-05-24T22:06:18.523Z,100314.23
2023-05-24T22:08:45.081Z,100317.15
2023-05-24T22:11:11.585Z,100318.78
2023-05-24T22:13:38.109Z,100321.83
2023-05-24T22:16:04.929Z,100321.88
2023-05-24T22:18:31.486Z,100324.37
2023-05-24T22:20:58.103Z,100326.32
2023-05-24T22:23:25.825Z,100332.52
2023-05-24T22:25:52.326Z,100332.68
2023-05-24T22:28:18.923Z,100330.22
2023-05-24T22:30:47.038Z,100325.94
2023-05-24T22:33:13.768Z,100325.39
2023-05-24T22:35:40.354Z,100331.20
2023-05-24T22:38:07.012Z,100334.82
2023-05-24T22:40:33.576Z,100338.27
2023-05-24T22:43:00.152Z,100341.67
2023-05-24T22:45:26.698Z,100344.70
2023-05-24T22:47:53.257Z,100344.85
2023-05-24T22:50:19.909Z,100346.95
2023-05-24T22:52:46.487Z,100350.41
2023-05-24T22:55:12.981Z,100353.39
2023-05-24T22:57:39.543Z,100353.10
2023-05-24T23:00:06.760Z,100351.59
2023-05-24T23:02:33.317Z,100353.80
2023-05-24T23:04:59.857Z,100352.78
2023-05-24T23:07:26.446Z,100355.20
2023-05-24T23:09:52.903Z,100353.84
2023-05-24T23:12:19.443Z,100352.07
2023-05-24T23:14:45.940Z,100352.27
2023-05-24T23:17:12.662Z,100353.85
2023-05-24T23:19:40.192Z,100355.52
2023-05-24T23:22:06.705Z,100359.52
2023-05-24T23:24:33.243Z,100363.38
2023-05-24T23:26:59.752Z,100361.90
2023-05-24T23:29:26.255Z,100362.52
2023-05-24T23:31:52.812Z,100363.77
2023-05-24T23:34:19.430Z,100368.97
2023-05-24T23:36:45.923Z,100368.35
2023-05-24T23:39:12.445Z,100370.37
2023-05-24T23:41:38.926Z,100367.39
2023-05-24T23:44:05.469Z,100370.80
2023-05-24T23:46:32.150Z,100373.39
2023-05-24T23:48:58.789Z,100374.73
2023-05-24T23:51:25.282Z,100373.45
2023-05-24T23:53:51.832Z,100373.90
2023-05-24T23:56:18.381Z,100375.56
2023-05-24T23:58:44.893Z,100378.07
